Time;durP1;ratioP1;P1;durP2;ratioP2;P2;SDS_P1;SDS_P2;PMS_P1;PMS_P2;Temp;Humidity;BMP_temperature;BMP_pressure;BME280_temperature;BME280_humidity;BME280_pressure;Samples;Min_cycle;Max_cycle;Signal;HPM_P1;HPM_P2
2022/09/24 00:01:50;;;;;;;0.00;0.00;;;;;;;12.20;100.00;101249.53;5049922;28;20082;-75
2022/09/24 00:04:16;;;;;;;0.00;0.00;;;;;;;12.16;100.00;101248.94;5045732;28;20548;-75
2022/09/24 00:06:44;;;;;;;0.00;0.00;;;;;;;12.17;100.00;101253.34;5044103;28;20047;-75
2022/09/24 00:09:10;;;;;;;0.10;0.10;;;;;;;11.94;100.00;101207.53;5042758;28;20518;-75
2022/09/24 00:11:37;;;;;;;0.10;0.10;;;;;;;12.19;100.00;101251.38;5046860;28;20025;-75
2022/09/24 00:14:03;;;;;;;0.10;0.10;;;;;;;12.26;100.00;101244.56;5051032;28;20040;-75
2022/09/24 00:16:31;;;;;;;0.10;0.10;;;;;;;12.22;100.00;101243.06;5049147;28;20029;-75
2022/09/24 00:18:57;;;;;;;0.10;0.10;;;;;;;12.15;100.00;101249.91;5050083;28;20038;-74
2022/09/24 00:21:26;;;;;;;0.10;0.10;;;;;;;12.13;100.00;101247.34;5045586;28;20504;-74
2022/09/24 00:23:56;;;;;;;0.03;0.03;;;;;;;12.17;100.00;101249.81;5044476;28;20032;-75
2022/09/24 00:29:08;;;;;;;0.10;0.10;;;;;;;11.97;100.00;101226.13;5051732;28;20067;-75
2022/09/24 00:31:33;;;;;;;0.10;0.10;;;;;;;11.98;100.00;101230.53;5044388;28;20435;-74
2022/09/24 00:33:59;;;;;;;0.10;0.10;;;;;;;11.96;100.00;101231.59;5051556;28;20039;-74
2022/09/24 00:36:25;;;;;;;0.10;0.10;;;;;;;12.11;100.00;101243.03;5048640;28;20061;-74
2022/09/24 00:38:52;;;;;;;0.10;0.10;;;;;;;12.07;100.00;101220.91;5047159;28;20036;-75
2022/09/24 00:41:19;;;;;;;0.00;0.00;;;;;;;12.06;100.00;101243.41;5051934;28;20037;-74
2022/09/24 00:43:45;;;;;;;0.10;0.10;;;;;;;12.04;100.00;101250.75;5045798;28;20036;-74
2022/09/24 00:46:32;;;;;;;0.10;0.10;;;;;;;11.93;100.00;101235.41;5051764;28;20020;-72
2022/09/24 00:49:18;;;;;;;0.10;0.10;;;;;;;11.90;100.00;101237.50;5045753;28;20494;-72
2022/09/24 00:51:46;;;;;;;0.10;0.10;;;;;;;11.87;100.00;101235.03;5046549;28;20049;-72
2022/09/24 00:54:14;;;;;;;0.10;0.10;;;;;;;11.79;100.00;101220.31;5046316;28;20028;-73
2022/09/24 00:56:42;;;;;;;0.10;0.10;;;;;;;11.98;100.00;101237.72;5050858;28;20051;-76
2022/09/24 00:59:10;;;;;;;0.00;0.00;;;;;;;11.90;100.00;101235.63;5042175;28;20027;-71
2022/09/24 01:01:36;;;;;;;0.10;0.10;;;;;;;11.92;100.00;101224.78;5044185;28;20067;-73
2022/09/24 01:04:01;;;;;;;0.10;0.10;;;;;;;11.97;100.00;101214.50;5035556;28;20205;-73
2022/09/24 01:06:27;;;;;;;0.10;0.10;;;;;;;11.94;100.00;101223.66;5050008;28;20028;-71
2022/09/24 01:08:54;;;;;;;0.00;0.00;;;;;;;12.03;100.00;101216.75;5049350;28;20032;-75
2022/09/24 01:11:42;;;;;;;0.10;0.10;;;;;;;11.88;100.00;101208.00;5046703;28;20037;-73
2022/09/24 01:14:26;;;;;;;0.00;0.00;;;;;;;12.00;100.00;101220.53;5048331;28;20633;-74
2022/09/24 01:17:02;;;;;;;0.10;0.10;;;;;;;11.96;100.00;101208.25;5047666;28;20028;-77
2022/09/24 01:19:30;;;;;;;0.10;0.10;;;;;;;11.93;100.00;101200.44;5045973;28;20043;-78
2022/09/24 01:22:21;;;;;;;0.10;0.10;;;;;;;11.92;100.00;101205.94;5051017;28;20411;-73
2022/09/24 01:25:12;;;;;;;0.00;0.00;;;;;;;11.79;100.00;101190.75;5023141;28;20036;-74
2022/09/24 01:27:56;;;;;;;0.00;0.00;;;;;;;11.90;100.00;101200.66;5052160;28;20064;-73
2022/09/24 01:30:21;;;;;;;0.10;0.10;;;;;;;11.90;100.00;101191.75;5049010;28;20060;-74
2022/09/24 01:32:54;;;;;;;0.10;0.10;;;;;;;11.87;100.00;101173.16;5047886;28;20085;-72
2022/09/24 01:35:41;;;;;;;0.10;0.10;;;;;;;11.92;100.00;101182.56;5051455;28;20082;-69
2022/09/24 01:38:25;;;;;;;0.10;0.10;;;;;;;11.95;100.00;101187.72;5054507;28;20040;-72
2022/09/24 01:40:52;;;;;;;0.10;0.10;;;;;;;11.90;100.00;101183.69;5047276;28;20017;-71
2022/09/24 01:43:20;;;;;;;0.10;0.10;;;;;;;11.97;100.00;101180.38;5043507;28;20455;-72
2022/09/24 01:45:46;;;;;;;0.10;0.10;;;;;;;11.98;100.00;101182.09;5047453;28;20041;-72
2022/09/24 01:48:12;;;;;;;0.10;0.10;;;;;;;11.98;100.00;101170.47;5046711;28;20035;-70
2022/09/24 01:50:44;;;;;;;0.10;0.10;;;;;;;12.01;100.00;101159.50;5050289;28;20046;-73
2022/09/24 01:53:16;;;;;;;0.10;0.10;;;;;;;12.00;100.00;101169.41;5051479;28;20535;-73
2022/09/24 01:55:47;;;;;;;0.10;0.10;;;;;;;11.99;100.00;101181.16;5051427;28;20028;-72
2022/09/24 01:58:15;;;;;;;0.10;0.10;;;;;;;11.99;100.00;101172.19;5051100;28;20040;-72
2022/09/24 02:00:43;;;;;;;0.03;0.03;;;;;;;12.01;100.00;101170.25;5052708;28;20035;-72
2022/09/24 02:03:18;;;;;;;0.10;0.10;;;;;;;11.92;100.00;101168.28;5045265;28;20029;-72
2022/09/24 02:05:50;;;;;;;0.00;0.00;;;;;;;11.87;100.00;101152.47;5052507;28;20021;-73
2022/09/24 02:08:21;;;;;;;0.03;0.03;;;;;;;11.87;100.00;101167.78;5044968;28;20487;-72
2022/09/24 02:10:54;;;;;;;0.10;0.10;;;;;;;11.97;100.00;101166.06;5050553;28;20038;-72
2022/09/24 02:13:23;;;;;;;0.10;0.10;;;;;;;11.69;100.00;101125.16;5044982;28;20028;-72
2022/09/24 02:15:49;;;;;;;0.10;0.10;;;;;;;11.87;100.00;101155.16;5053863;28;20036;-72
2022/09/24 02:18:18;;;;;;;0.10;0.10;;;;;;;11.90;100.00;101151.38;5046760;28;20033;-71
2022/09/24 02:20:43;;;;;;;0.00;0.00;;;;;;;11.79;100.00;101133.38;5053053;28;20031;-75
2022/09/24 02:23:10;;;;;;;0.10;0.10;;;;;;;12.00;100.00;101155.97;5046056;28;20024;-72
2022/09/24 02:26:02;;;;;;;0.10;0.10;;;;;;;11.95;100.00;101150.03;5047807;28;20099;-72
2022/09/24 02:28:28;;;;;;;0.10;0.10;;;;;;;12.02;100.00;101154.97;5049567;28;20086;-72
2022/09/24 02:31:10;;;;;;;0.10;0.10;;;;;;;12.02;100.00;101149.59;5057658;28;20029;-73
2022/09/24 02:36:23;;;;;;;0.10;0.10;;;;;;;12.05;100.00;101136.75;5049479;28;20093;-72
2022/09/24 02:38:50;;;;;;;0.03;0.03;;;;;;;11.98;100.00;101127.41;5051935;28;20482;-72
2022/09/24 02:41:15;;;;;;;0.00;0.00;;;;;;;12.19;100.00;101142.84;5050173;28;20032;-74
2022/09/24 02:43:41;;;;;;;0.10;0.10;;;;;;;12.10;100.00;101129.16;5048868;28;20032;-73
2022/09/24 02:46:09;;;;;;;0.10;0.10;;;;;;;12.09;100.00;101121.19;5049799;28;20035;-75
2022/09/24 02:48:38;;;;;;;0.10;0.10;;;;;;;12.32;100.00;101138.19;5045569;28;20035;-74
2022/09/24 02:51:04;;;;;;;0.10;0.10;;;;;;;12.20;100.00;101147.25;5046885;28;20049;-71
2022/09/24 02:53:30;;;;;;;0.10;0.10;;;;;;;12.13;100.00;101131.63;5052242;28;20070;-76
2022/09/24 02:55:56;;;;;;;0.08;0.08;;;;;;;12.22;100.00;101139.91;5053716;28;20202;-76
2022/09/24 02:58:21;;;;;;;0.03;0.03;;;;;;;12.19;100.00;101145.53;5048118;28;20550;-73
2022/09/24 03:00:46;;;;;;;0.10;0.10;;;;;;;12.07;100.00;101139.31;5051154;28;20024;-71
2022/09/24 03:03:12;;;;;;;0.10;0.10;;;;;;;12.24;100.00;101141.53;5050445;28;20029;-72
2022/09/24 03:05:37;;;;;;;0.10;0.10;;;;;;;12.18;100.00;101122.31;5050444;28;20028;-72
2022/09/24 03:08:03;;;;;;;0.10;0.10;;;;;;;12.03;100.00;101125.25;5051348;28;20097;-72
2022/09/24 03:10:28;;;;;;;0.00;0.00;;;;;;;12.23;100.00;101129.03;5040120;28;20115;-74
2022/09/24 03:12:55;;;;;;;0.10;0.10;;;;;;;12.01;100.00;101124.50;5044009;28;20071;-70
2022/09/24 03:15:20;;;;;;;0.05;0.05;;;;;;;12.00;100.00;101126.34;5040207;28;20739;-71
2022/09/24 03:17:46;;;;;;;0.10;0.10;;;;;;;11.91;100.00;101107.38;5041072;28;20036;-77
2022/09/24 03:20:11;;;;;;;0.10;0.10;;;;;;;12.15;100.00;101120.72;5039593;28;20115;-71
2022/09/24 03:22:36;;;;;;;0.10;0.10;;;;;;;11.98;100.00;101127.41;5043009;28;20029;-74
2022/09/24 03:25:02;;;;;;;0.10;0.10;;;;;;;11.95;100.00;101107.00;5049380;28;20041;-75
2022/09/24 03:27:27;;;;;;;0.10;0.10;;;;;;;11.90;100.00;101119.09;5045965;28;20779;-70
2022/09/24 03:32:37;;;;;;;0.10;0.10;;;;;;;11.88;100.00;101118.38;5045472;28;20040;-70
2022/09/24 03:35:03;;;;;;;0.00;0.00;;;;;;;11.92;100.00;101118.00;5041638;28;21452;-71
2022/09/24 03:37:28;;;;;;;0.03;0.03;;;;;;;11.84;100.00;101099.78;5047783;28;20662;-71
2022/09/24 03:39:53;;;;;;;0.05;0.05;;;;;;;11.93;100.00;101119.72;5045382;28;20028;-69
2022/09/24 03:42:18;;;;;;;0.10;0.10;;;;;;;11.92;100.00;101101.00;5048025;28;20091;-70
2022/09/24 03:44:44;;;;;;;0.10;0.10;;;;;;;11.77;100.00;101085.09;5048764;28;20526;-71
2022/09/24 03:47:09;;;;;;;0.10;0.10;;;;;;;12.04;100.00;101116.19;5052363;28;20331;-69
2022/09/24 03:49:34;;;;;;;0.10;0.10;;;;;;;12.13;100.00;101117.28;5048829;28;20070;-69
2022/09/24 03:52:00;;;;;;;0.10;0.10;;;;;;;11.89;100.00;101088.63;5047525;28;20068;-68
2022/09/24 03:54:25;;;;;;;0.10;0.10;;;;;;;11.92;100.00;101098.31;5047922;28;20036;-71
2022/09/24 03:56:50;;;;;;;0.10;0.10;;;;;;;11.97;100.00;101113.09;5050336;28;20112;-69
2022/09/24 03:59:15;;;;;;;0.10;0.10;;;;;;;11.94;100.00;101112.47;5050535;28;20051;-68
2022/09/24 04:01:41;;;;;;;0.10;0.10;;;;;;;12.03;100.00;101110.94;5053199;28;20478;-68
2022/09/24 04:04:06;;;;;;;0.10;0.10;;;;;;;11.93;100.00;101108.06;5046812;28;20125;-69
2022/09/24 04:06:31;;;;;;;0.10;0.10;;;;;;;11.99;100.00;101100.41;5052123;28;20024;-69
2022/09/24 04:08:57;;;;;;;0.10;0.10;;;;;;;12.03;100.00;101094.81;5046218;28;20320;-69
2022/09/24 04:11:23;;;;;;;0.10;0.10;;;;;;;11.90;100.00;101101.13;5047731;28;20072;-68
2022/09/24 04:13:48;;;;;;;0.10;0.10;;;;;;;12.07;100.00;101104.31;5046755;28;20029;-68
2022/09/24 04:16:14;;;;;;;0.10;0.10;;;;;;;11.98;100.00;101105.88;5048112;28;20043;-69
2022/09/24 04:18:39;;;;;;;0.10;0.10;;;;;;;11.98;100.00;101095.97;5044844;28;20028;-70
2022/09/24 04:21:05;;;;;;;0.10;0.10;;;;;;;11.91;100.00;101072.38;5052822;28;20028;-75
2022/09/24 04:23:30;;;;;;;0.10;0.10;;;;;;;11.92;100.00;101071.41;5035859;28;20456;-69
2022/09/24 04:26:02;;;;;;;0.08;0.08;;;;;;;12.09;100.00;101088.91;5049962;28;20454;-67
2022/09/24 04:28:28;;;;;;;0.10;0.10;;;;;;;12.06;100.00;101087.31;5056262;28;20032;-69
2022/09/24 04:30:54;;;;;;;0.10;0.10;;;;;;;12.21;100.00;101084.34;5054385;28;20356;-72
2022/09/24 04:33:19;;;;;;;0.10;0.10;;;;;;;12.03;100.00;101087.56;5058151;28;20441;-68
2022/09/24 04:35:44;;;;;;;0.10;0.10;;;;;;;12.07;100.00;101082.78;5052623;28;20028;-76
2022/09/24 04:38:10;;;;;;;0.10;0.10;;;;;;;12.00;100.00;101077.03;5057915;28;20612;-69
2022/09/24 04:40:35;;;;;;;0.10;0.10;;;;;;;12.04;100.00;101077.66;5055979;28;20518;-69
2022/09/24 04:43:01;;;;;;;0.10;0.10;;;;;;;11.99;100.00;101083.41;5048252;28;20033;-68
2022/09/24 04:45:26;;;;;;;0.10;0.10;;;;;;;12.02;100.00;101082.31;5051096;28;20028;-70
2022/09/24 04:47:54;;;;;;;0.10;0.10;;;;;;;12.14;100.00;101082.19;5044129;28;20044;-68
2022/09/24 04:50:21;;;;;;;0.10;0.10;;;;;;;11.91;100.00;101086.69;5046983;28;20063;-68
2022/09/24 04:52:46;;;;;;;0.10;0.10;;;;;;;11.95;100.00;101077.38;5049035;28;20021;-69
2022/09/24 04:55:12;;;;;;;0.10;0.10;;;;;;;12.10;100.00;101074.47;5049134;28;20028;-73
2022/09/24 04:57:37;;;;;;;0.10;0.10;;;;;;;11.87;100.00;101066.38;5045037;28;20120;-69
2022/09/24 05:00:05;;;;;;;0.10;0.10;;;;;;;11.98;100.00;101089.72;5048718;28;20037;-68
2022/09/24 05:02:30;;;;;;;0.10;0.10;;;;;;;11.89;100.00;101085.94;5043864;28;20040;-67
2022/09/24 05:04:56;;;;;;;0.10;0.10;;;;;;;12.02;100.00;101090.41;5054681;28;20024;-68
2022/09/24 05:07:21;;;;;;;0.10;0.10;;;;;;;11.94;100.00;101081.06;5050758;28;20028;-68
2022/09/24 05:09:46;;;;;;;0.10;0.10;;;;;;;11.99;100.00;101086.09;5047257;28;20032;-70
2022/09/24 05:12:13;;;;;;;0.10;0.10;;;;;;;11.96;100.00;101089.88;5043066;28;20060;-67
2022/09/24 05:14:38;;;;;;;0.10;0.10;;;;;;;11.94;100.00;101085.56;5049607;28;20135;-67
2022/09/24 05:17:03;;;;;;;0.10;0.10;;;;;;;11.97;100.00;101098.78;5048278;28;20034;-68
2022/09/24 05:19:29;;;;;;;0.10;0.10;;;;;;;12.08;100.00;101073.72;5043084;28;20055;-70
2022/09/24 05:21:54;;;;;;;0.00;0.00;;;;;;;12.01;100.00;101078.75;5047426;28;20036;-69
2022/09/24 05:24:19;;;;;;;0.08;0.08;;;;;;;12.07;100.00;101080.09;5046102;28;20497;-70
2022/09/24 05:29:28;;;;;;;0.05;0.05;;;;;;;12.13;100.00;101099.31;5045475;28;20040;-70
2022/09/24 05:31:54;;;;;;;0.10;0.10;;;;;;;12.11;100.00;101078.88;5046806;28;20028;-72
2022/09/24 05:34:20;;;;;;;0.10;0.10;;;;;;;12.04;100.00;101089.28;5054147;28;20033;-71
2022/09/24 05:36:45;;;;;;;0.03;0.03;;;;;;;12.06;100.00;101083.75;5052657;28;20663;-70
2022/09/24 05:39:12;;;;;;;0.00;0.00;;;;;;;11.95;100.00;101093.53;5046039;28;20024;-72
2022/09/24 05:41:37;;;;;;;0.10;0.10;;;;;;;11.98;100.00;101092.41;5054513;28;20033;-68
2022/09/24 05:44:03;;;;;;;0.05;0.05;;;;;;;11.96;100.00;101095.25;5048692;28;20066;-71
2022/09/24 05:46:28;;;;;;;0.10;0.10;;;;;;;12.00;100.00;101103.94;5047845;28;20036;-72
2022/09/24 05:48:54;;;;;;;0.10;0.10;;;;;;;11.88;100.00;101078.00;5050178;28;20078;-70
2022/09/24 05:51:20;;;;;;;0.10;0.10;;;;;;;11.93;100.00;101103.56;5047931;28;20040;-68
2022/09/24 05:53:45;;;;;;;0.10;0.10;;;;;;;11.77;100.00;101097.69;5043771;28;20676;-70
2022/09/24 05:56:10;;;;;;;0.10;0.10;;;;;;;11.75;100.00;101107.72;5050134;28;20084;-67
2022/09/24 05:58:35;;;;;;;0.10;0.10;;;;;;;11.83;100.00;101110.63;5050241;28;20033;-70
2022/09/24 06:01:01;;;;;;;0.10;0.10;;;;;;;11.88;100.00;101111.13;5049795;28;20025;-75
2022/09/24 06:03:28;;;;;;;0.10;0.10;;;;;;;11.79;100.00;101110.03;5046709;28;20410;-68
2022/09/24 06:05:55;;;;;;;0.10;0.10;;;;;;;11.70;100.00;101100.00;5053311;28;20029;-75
2022/09/24 06:08:20;;;;;;;0.00;0.00;;;;;;;11.77;100.00;101105.75;5049996;28;20048;-71
2022/09/24 06:10:46;;;;;;;0.10;0.10;;;;;;;11.62;100.00;101084.47;5047564;28;20506;-73
2022/09/24 06:13:13;;;;;;;0.10;0.10;;;;;;;11.78;100.00;101113.69;5049588;28;20028;-70
2022/09/24 06:15:40;;;;;;;0.10;0.10;;;;;;;11.69;100.00;101085.69;5058244;28;20025;-72
2022/09/24 06:18:05;;;;;;;0.10;0.10;;;;;;;11.88;100.00;101118.38;5052826;28;20040;-71
2022/09/24 06:20:31;;;;;;;0.10;0.10;;;;;;;11.83;100.00;101090.00;5058577;28;20108;-73
2022/09/24 06:22:56;;;;;;;0.00;0.00;;;;;;;11.83;100.00;101113.31;5055422;28;20107;-71
2022/09/24 06:25:23;;;;;;;0.10;0.10;;;;;;;11.83;100.00;101113.31;5052051;28;20050;-70
2022/09/24 06:28:01;;;;;;;0.10;0.10;;;;;;;11.87;100.00;101117.50;5044508;28;20064;-74
2022/09/24 06:30:28;;;;;;;0.00;0.00;;;;;;;11.81;100.00;101102.69;5051228;28;20056;-73
2022/09/24 06:32:54;;;;;;;0.10;0.10;;;;;;;11.69;100.00;101104.53;5048775;28;20052;-71
2022/09/24 06:35:19;;;;;;;0.03;0.03;;;;;;;11.61;100.00;101100.72;5050583;28;20167;-69
2022/09/24 06:37:45;;;;;;;0.10;0.10;;;;;;;11.69;100.00;101122.47;5057021;28;20160;-70
2022/09/24 06:40:11;;;;;;;0.00;0.00;;;;;;;11.63;100.00;101110.38;5054867;28;20060;-69
2022/09/24 06:42:37;;;;;;;0.08;0.08;;;;;;;11.59;100.00;101089.22;5053242;28;20485;-74
2022/09/24 06:45:03;;;;;;;0.10;0.10;;;;;;;11.75;100.00;101124.69;5055746;28;20028;-73
2022/09/24 06:47:29;;;;;;;0.10;0.10;;;;;;;11.84;100.00;101113.22;5053386;28;20064;-74
2022/09/24 06:49:54;;;;;;;0.10;0.10;;;;;;;11.66;100.00;101112.84;5052033;28;20534;-73
2022/09/24 06:52:19;;;;;;;0.00;0.00;;;;;;;11.78;100.00;101116.38;5055393;28;20033;-73
2022/09/24 06:54:45;;;;;;;0.10;0.10;;;;;;;11.77;100.00;101133.50;5050207;28;20394;-72
2022/09/24 06:57:10;;;;;;;0.08;0.08;;;;;;;11.67;100.00;101116.38;5051893;28;20063;-71
2022/09/24 06:59:35;;;;;;;0.10;0.10;;;;;;;11.73;100.00;101128.50;5045116;28;20044;-70
2022/09/24 07:02:01;;;;;;;0.10;0.10;;;;;;;11.88;100.00;101138.03;5043515;28;20035;-73
2022/09/24 07:04:26;;;;;;;0.10;0.10;;;;;;;11.79;100.00;101128.88;5050122;28;20033;-72
2022/09/24 07:09:39;;;;;;;0.00;0.00;;;;;;;11.86;100.00;101131.91;5051140;28;20124;-72
2022/09/24 07:12:07;;;;;;;0.05;0.05;;;;;;;11.83;100.00;101145.59;5062017;28;20043;-71
2022/09/24 07:14:32;;;;;;;0.10;0.10;;;;;;;11.73;100.00;101120.44;5056280;28;20034;-70
2022/09/24 07:16:58;;;;;;;0.10;0.10;;;;;;;11.75;100.00;101143.53;5056346;28;20041;-71
2022/09/24 07:19:23;;;;;;;0.10;0.10;;;;;;;11.80;100.00;101154.78;5051150;28;20048;-69
2022/09/24 07:21:48;;;;;;;0.10;0.10;;;;;;;11.73;100.00;101160.78;5057060;28;20052;-71
2022/09/24 07:24:14;;;;;;;0.10;0.10;;;;;;;11.77;100.00;101148.81;5055181;28;20035;-75
2022/09/24 07:26:39;;;;;;;0.10;0.10;;;;;;;11.89;100.00;101152.38;5058625;28;20029;-75
2022/09/24 07:29:04;;;;;;;0.10;0.10;;;;;;;11.92;100.00;101149.44;5049319;28;20033;-75
2022/09/24 07:31:30;;;;;;;0.10;0.10;;;;;;;12.03;100.00;101157.53;5046411;28;20708;-74
2022/09/24 07:33:55;;;;;;;0.10;0.10;;;;;;;12.07;100.00;101148.25;5055227;28;20024;-74
2022/09/24 07:36:21;;;;;;;0.00;0.00;;;;;;;11.94;100.00;101137.56;5058664;28;20037;-74
2022/09/24 07:38:46;;;;;;;0.10;0.10;;;;;;;11.97;100.00;101155.28;5056419;28;20487;-72
2022/09/24 07:41:11;;;;;;;0.10;0.10;;;;;;;12.00;100.00;101164.03;5058479;28;20371;-71
2022/09/24 07:43:37;;;;;;;0.10;0.10;;;;;;;11.93;100.00;101172.66;5055682;28;20220;-71
2022/09/24 07:46:02;;;;;;;0.10;0.10;;;;;;;11.82;100.00;101170.78;5054851;28;20032;-71
2022/09/24 07:48:28;;;;;;;0.10;0.10;;;;;;;11.77;100.00;101152.34;5060268;28;20025;-72
2022/09/24 07:50:53;;;;;;;0.00;0.00;;;;;;;11.90;100.00;101170.22;5048918;28;20067;-71
2022/09/24 07:53:20;;;;;;;0.10;0.10;;;;;;;11.89;100.00;101177.41;5057032;28;20463;-68
2022/09/24 07:55:46;;;;;;;0.10;0.10;;;;;;;11.83;100.00;101170.69;5052987;28;20108;-70
2022/09/24 07:58:12;;;;;;;0.10;0.10;;;;;;;11.84;100.00;101180.47;5059735;28;20032;-70
2022/09/24 08:00:38;;;;;;;0.10;0.10;;;;;;;11.90;100.00;101154.09;5057032;28;20566;-74
2022/09/24 08:03:04;;;;;;;0.10;0.10;;;;;;;12.02;100.00;101169.28;5062914;28;20066;-76
2022/09/24 08:05:29;;;;;;;0.10;0.10;;;;;;;12.03;100.00;101165.59;5069307;28;20056;-75
2022/09/24 08:07:56;;;;;;;0.10;0.10;;;;;;;11.90;100.00;101178.28;5063771;28;20131;-72
2022/09/24 08:10:22;;;;;;;0.10;0.10;;;;;;;11.92;100.00;101192.50;5070752;28;20059;-69
2022/09/24 08:12:48;;;;;;;0.00;0.00;;;;;;;11.75;100.00;101178.50;5056287;28;22259;-75
2022/09/24 08:15:14;;;;;;;0.10;0.10;;;;;;;11.61;100.00;101158.03;5057800;28;20496;-69
2022/09/24 08:17:40;;;;;;;0.10;0.10;;;;;;;11.60;100.00;101150.13;5046881;28;20440;-71
2022/09/24 08:20:05;;;;;;;0.10;0.10;;;;;;;11.82;100.00;101186.94;5051657;28;20635;-71
2022/09/24 08:22:32;;;;;;;0.20;0.20;;;;;;;11.63;100.00;101158.78;5047015;28;20028;-71
2022/09/24 08:24:57;;;;;;;0.10;0.10;;;;;;;11.81;100.00;101193.28;5055239;28;20032;-70
2022/09/24 08:27:24;;;;;;;0.10;0.10;;;;;;;11.76;100.00;101161.38;5062451;28;20036;-74
2022/09/24 08:29:50;;;;;;;0.15;0.15;;;;;;;11.88;100.00;101181.09;5060844;28;20031;-72
2022/09/24 08:32:16;;;;;;;0.10;0.10;;;;;;;11.93;100.00;101203.13;5052547;28;20052;-72
2022/09/24 08:34:42;;;;;;;0.10;0.10;;;;;;;11.88;100.00;101201.78;5052543;28;20082;-70
2022/09/24 08:37:07;;;;;;;0.10;0.10;;;;;;;12.04;100.00;101202.31;5058128;28;20040;-71
2022/09/24 08:39:33;;;;;;;0.10;0.10;;;;;;;11.84;100.00;101199.31;5051921;28;20027;-73
2022/09/24 08:42:00;;;;;;;0.10;0.10;;;;;;;12.01;100.00;101199.84;5053492;28;20979;-73
2022/09/24 08:47:42;;;;;;;0.10;0.10;;;;;;;11.88;100.00;101196.38;5048094;28;20562;-73
2022/09/24 08:50:12;;;;;;;0.10;0.10;;;;;;;11.90;100.00;101208.72;5047772;28;20029;-71
2022/09/24 08:52:45;;;;;;;0.10;0.10;;;;;;;11.99;100.00;101213.44;5053158;28;20082;-72
2022/09/24 08:55:20;;;;;;;0.10;0.10;;;;;;;11.95;100.00;101209.25;5049316;28;20713;-72
2022/09/24 08:58:24;;;;;;;0.10;0.10;;;;;;;11.98;100.00;101216.19;5053422;28;20064;-72
2022/09/24 09:00:55;;;;;;;0.10;0.10;;;;;;;12.02;100.00;101212.34;5051587;28;20110;-72
2022/09/24 09:03:46;;;;;;;0.10;0.10;;;;;;;11.94;100.00;101217.41;5051485;28;20033;-73
2022/09/24 09:06:36;;;;;;;0.15;0.15;;;;;;;12.02;100.00;101217.72;5049245;28;20025;-70
2022/09/24 09:09:18;;;;;;;0.10;0.10;;;;;;;12.04;100.00;101220.31;5052648;28;20036;-76
2022/09/24 09:11:46;;;;;;;0.10;0.10;;;;;;;12.08;100.00;101221.75;5052075;28;22584;-71
2022/09/24 09:14:17;;;;;;;0.10;0.10;;;;;;;11.79;100.00;101190.75;5046472;28;20475;-71
2022/09/24 09:16:50;;;;;;;0.10;0.10;;;;;;;12.13;100.00;101225.81;5053510;28;20037;-74
2022/09/24 09:19:16;;;;;;;0.10;0.10;;;;;;;12.05;100.00;101214.78;5047242;28;21018;-73
2022/09/24 09:21:45;;;;;;;0.10;0.10;;;;;;;12.21;100.00;101229.72;5048003;28;20031;-77
2022/09/24 09:24:16;;;;;;;0.10;0.10;;;;;;;12.08;100.00;101229.81;5049234;28;20828;-71
2022/09/24 09:26:46;;;;;;;0.10;0.10;;;;;;;12.26;100.00;101236.47;5052057;28;20442;-72
2022/09/24 09:29:11;;;;;;;0.20;0.20;;;;;;;12.17;100.00;101239.03;5051679;28;20043;-73
2022/09/24 09:31:58;;;;;;;0.10;0.10;;;;;;;12.21;100.00;101237.78;5053513;28;20467;-71
2022/09/24 09:35:03;;;;;;;0.10;0.10;;;;;;;12.15;100.00;101233.75;5044494;28;20024;-71
2022/09/24 09:37:35;;;;;;;0.10;0.10;;;;;;;12.15;100.00;101237.31;5051404;28;20036;-72
2022/09/24 09:40:10;;;;;;;0.10;0.10;;;;;;;12.29;100.00;101236.25;5052944;28;20028;-74
2022/09/24 09:42:37;;;;;;;0.10;0.10;;;;;;;12.14;100.00;101218.59;5052071;28;20032;-70
2022/09/24 09:45:19;;;;;;;0.10;0.10;;;;;;;12.28;100.00;101239.03;5054041;28;20031;-72
2022/09/24 09:47:47;;;;;;;0.15;0.15;;;;;;;12.35;100.00;101229.50;5052408;28;20492;-74
2022/09/24 09:50:19;;;;;;;0.10;0.10;;;;;;;12.25;100.00;101240.16;5051465;28;20032;-71
2022/09/24 09:52:44;;;;;;;0.10;0.10;;;;;;;12.27;100.00;101238.19;5051438;28;20123;-74
2022/09/24 09:55:20;;;;;;;0.20;0.20;;;;;;;12.12;100.00;101209.78;5047866;28;20455;-75
2022/09/24 09:57:46;;;;;;;0.10;0.10;;;;;;;12.29;100.00;101219.22;5055658;28;20024;-76
2022/09/24 10:00:25;;;;;;;0.10;0.10;;;;;;;12.43;100.00;101236.97;5061040;28;20356;-73
2022/09/24 10:02:52;;;;;;;0.10;0.10;;;;;;;12.37;100.00;101227.56;5059157;28;20029;-74
2022/09/24 10:05:20;;;;;;;0.10;0.10;;;;;;;12.46;100.00;101234.03;5052001;28;20525;-72
2022/09/24 10:07:45;;;;;;;0.10;0.10;;;;;;;12.40;100.00;101240.78;5049019;28;20029;-71
2022/09/24 10:10:23;;;;;;;0.10;0.10;;;;;;;12.33;100.00;101236.84;5051981;28;20063;-73
2022/09/24 10:12:51;;;;;;;0.10;0.10;;;;;;;12.45;100.00;101224.25;5055582;28;20037;-79
2022/09/24 10:15:18;;;;;;;0.10;0.10;;;;;;;12.55;100.00;101224.34;5056762;28;20475;-75
2022/09/24 10:17:46;;;;;;;0.10;0.10;;;;;;;12.57;100.00;101223.28;5042407;28;20032;-76
2022/09/24 10:20:16;;;;;;;0.10;0.10;;;;;;;12.70;100.00;101235.75;5054079;28;20105;-74
2022/09/24 10:22:51;;;;;;;0.05;0.05;;;;;;;12.63;100.00;101235.38;5051695;28;20025;-75
2022/09/24 10:25:23;;;;;;;0.10;0.10;;;;;;;12.54;100.00;101210.03;5055712;28;20107;-76
2022/09/24 10:27:49;;;;;;;0.10;0.10;;;;;;;12.63;100.00;101235.38;5051261;28;20119;-76
2022/09/24 10:30:33;;;;;;;0.00;0.00;;;;;;;12.66;100.00;101226.19;5050969;28;20514;-74
2022/09/24 10:33:01;;;;;;;0.10;0.10;;;;;;;12.70;100.00;101227.66;5053678;28;20052;-76
2022/09/24 10:35:34;;;;;;;0.10;0.10;;;;;;;12.61;100.00;101218.47;5058151;28;20028;-75
2022/09/24 10:38:01;;;;;;;0.10;0.10;;;;;;;12.69;100.00;101221.44;5051171;28;20082;-73
2022/09/24 10:40:37;;;;;;;0.10;0.10;;;;;;;12.77;100.00;101231.56;5054989;28;20188;-74
2022/09/24 10:43:04;;;;;;;0.10;0.10;;;;;;;12.75;100.00;101236.22;5053028;28;20578;-75
2022/09/24 10:45:46;;;;;;;0.10;0.10;;;;;;;12.67;100.00;101218.00;5058906;28;20040;-74
2022/09/24 10:48:26;;;;;;;0.10;0.10;;;;;;;12.82;100.00;101237.44;5053350;28;20093;-78
2022/09/24 10:51:10;;;;;;;0.10;0.10;;;;;;;12.84;100.00;101238.19;5052248;28;20039;-74
2022/09/24 10:53:43;;;;;;;0.10;0.10;;;;;;;12.88;100.00;101242.31;5053170;28;20040;-78
2022/09/24 10:56:23;;;;;;;0.20;0.10;;;;;;;12.93;100.00;101241.97;5054895;28;20060;-79
2022/09/24 10:59:06;;;;;;;0.10;0.10;;;;;;;12.68;100.00;101202.69;5059666;28;20032;-75
2022/09/24 11:01:48;;;;;;;0.10;0.10;;;;;;;12.98;100.00;101230.78;5057320;28;20029;-79
2022/09/24 11:04:35;;;;;;;0.10;0.10;;;;;;;13.02;100.00;101238.50;5053860;28;20051;-76
2022/09/24 11:07:13;;;;;;;0.10;0.10;;;;;;;13.08;100.00;101229.06;5052779;28;20503;-78
2022/09/24 11:09:47;;;;;;;0.10;0.10;;;;;;;12.93;100.00;101224.94;5056314;28;20471;-75
2022/09/24 11:12:34;;;;;;;0.10;0.10;;;;;;;13.05;100.00;101235.56;5057294;28;20032;-76
2022/09/24 11:15:21;;;;;;;0.10;0.10;;;;;;;12.99;100.00;101210.94;5050246;28;20041;-77
2022/09/24 11:18:22;;;;;;;0.10;0.10;;;;;;;13.19;100.00;101238.97;5038231;28;20040;-72
2022/09/24 11:21:13;;;;;;;0.10;0.10;;;;;;;13.15;100.00;101232.13;5051951;28;20044;-74
2022/09/24 11:23:48;;;;;;;0.10;0.10;;;;;;;13.21;100.00;101242.41;5046341;28;20183;-77
2022/09/24 11:26:44;;;;;;;0.10;0.10;;;;;;;13.00;100.00;101220.75;5054885;28;20059;-77
2022/09/24 11:29:43;;;;;;;0.00;0.00;;;;;;;13.23;100.00;101253.03;5048840;28;20484;-76
2022/09/24 11:32:17;;;;;;;0.10;0.10;;;;;;;13.26;100.00;101252.78;5056161;28;19920;-76
2022/09/24 11:35:17;;;;;;;0.15;0.15;;;;;;;13.10;100.00;101253.19;5046833;28;20508;-77
2022/09/24 11:37:45;;;;;;;0.10;0.10;;;;;;;13.23;100.00;101259.31;5054175;28;20059;-76
2022/09/24 11:40:34;;;;;;;0.10;0.10;;;;;;;13.22;100.00;101254.03;5050582;28;20060;-75
2022/09/24 11:43:40;;;;;;;0.10;0.10;;;;;;;13.22;100.00;101257.59;5058445;28;20039;-72
2022/09/24 11:46:39;;;;;;;0.10;0.10;;;;;;;13.24;100.00;101254.75;5061282;28;20024;-74